Time;durP1;ratioP1;P1;durP2;ratioP2;P2;SDS_P1;SDS_P2;PMS_P1;PMS_P2;Temp;Humidity;BMP_temperature;BMP_pressure;BME280_temperature;BME280_humidity;BME280_pressure;Samples;Min_cycle;Max_cycle;Signal;HPM_P1;HPM_P2
2023/10/18 00:00:59;;;;;;;38.08;24.27;;;7.20;99.90;;;;;;5096764;28;20481;-76
2023/10/18 00:07:12;;;;;;;37.15;22.73;;;7.30;99.90;;;;;;5098047;23;20062;-77
2023/10/18 00:12:10;;;;;;;43.38;25.98;;;7.30;99.90;;;;;;5026116;23;20155;-81
2023/10/18 00:14:38;;;;;;;39.35;27.00;;;7.30;99.90;;;;;;4943067;29;20501;-83
2023/10/18 00:17:05;;;;;;;40.92;26.73;;;7.30;99.90;;;;;;4931509;29;20020;-81
2023/10/18 00:19:31;;;;;;;42.10;27.35;;;7.20;99.90;;;;;;4935103;29;20043;-83
2023/10/18 00:21:57;;;;;;;42.75;28.70;;;7.20;99.90;;;;;;4919955;29;20040;-83
2023/10/18 00:24:23;;;;;;;50.55;27.48;;;7.20;99.90;;;;;;4937155;29;20388;-83
2023/10/18 00:26:49;;;;;;;45.30;29.40;;;7.30;99.90;;;;;;4937076;29;20035;-84
2023/10/18 00:29:15;;;;;;;42.55;27.73;;;7.30;99.90;;;;;;4936906;29;20094;-74
2023/10/18 00:31:42;;;;;;;47.13;28.73;;;7.30;99.90;;;;;;4919747;29;20372;-83
2023/10/18 00:34:08;;;;;;;44.53;26.85;;;7.30;99.90;;;;;;4919187;29;20038;-81
2023/10/18 00:36:33;;;;;;;39.20;26.25;;;7.30;99.90;;;;;;4937090;29;20031;-83
2023/10/18 00:38:59;;;;;;;38.33;25.02;;;7.10;99.90;;;;;;4919589;29;20024;-83
2023/10/18 00:41:43;;;;;;;37.47;25.25;;;7.10;99.90;;;;;;4919502;29;20040;-83
2023/10/18 00:44:14;;;;;;;;;;;7.10;99.90;;;;;;4937783;29;20451;-84
2023/10/18 00:46:40;;;;;;;34.05;22.88;;;6.90;99.90;;;;;;4936638;29;20030;-83
2023/10/18 00:49:13;;;;;;;33.38;21.55;;;6.70;99.90;;;;;;4937075;29;20027;-77
2023/10/18 00:51:43;;;;;;;39.58;22.45;;;6.70;99.90;;;;;;4920368;29;20036;-80
2023/10/18 00:54:16;;;;;;;35.83;24.20;;;6.70;99.90;;;;;;4923253;29;20031;-85
2023/10/18 00:56:43;;;;;;;37.85;22.73;;;6.40;99.90;;;;;;4922176;29;20434;-79
2023/10/18 00:59:18;;;;;;;34.90;22.80;;;6.50;99.90;;;;;;4920849;29;20065;-82
2023/10/18 01:01:46;;;;;;;35.30;22.65;;;6.50;99.90;;;;;;4908467;29;20555;-84
2023/10/18 01:04:12;;;;;;;33.30;23.10;;;6.40;99.90;;;;;;4931441;29;20023;-83
2023/10/18 01:06:47;;;;;;;32.58;22.27;;;6.30;99.90;;;;;;4936661;29;20046;-81
2023/10/18 01:09:16;;;;;;;39.60;21.58;;;6.30;99.90;;;;;;4941075;29;20494;-83
2023/10/18 01:11:45;;;;;;;36.63;20.45;;;6.30;99.90;;;;;;4936433;29;20395;-81
2023/10/18 01:14:16;;;;;;;30.30;20.63;;;6.30;99.90;;;;;;4923572;29;20040;-76
2023/10/18 01:16:44;;;;;;;30.27;19.50;;;6.30;99.90;;;;;;4932870;29;20051;-84
2023/10/18 01:19:14;;;;;;;29.67;19.52;;;6.30;99.90;;;;;;4936405;29;20271;-83
2023/10/18 01:21:45;;;;;;;29.90;19.67;;;6.30;99.90;;;;;;4922854;29;20035;-83
2023/10/18 01:24:15;;;;;;;28.17;20.42;;;6.30;99.90;;;;;;4921429;29;20040;-82
2023/10/18 01:26:41;;;;;;;29.83;19.10;;;6.20;99.90;;;;;;4925708;29;20047;-77
2023/10/18 01:29:10;;;;;;;29.40;18.70;;;6.30;99.90;;;;;;4925757;29;20029;-84
2023/10/18 01:31:37;;;;;;;28.13;18.02;;;6.20;99.90;;;;;;4919462;29;20055;-84
2023/10/18 01:34:03;;;;;;;30.38;18.77;;;6.20;99.90;;;;;;4914574;29;20031;-77
2023/10/18 01:36:32;;;;;;;28.55;18.02;;;6.20;99.90;;;;;;4922030;29;20048;-75
2023/10/18 01:38:58;;;;;;;29.30;17.75;;;6.20;99.90;;;;;;4919694;29;20067;-76
2023/10/18 01:41:25;;;;;;;27.77;17.23;;;6.20;99.90;;;;;;4917012;29;20043;-84
2023/10/18 01:43:52;;;;;;;29.10;17.98;;;6.10;99.90;;;;;;4931697;29;20034;-76
2023/10/18 01:46:19;;;;;;;27.13;18.33;;;6.10;99.90;;;;;;4942672;29;20039;-80
2023/10/18 01:48:51;;;;;;;28.60;17.98;;;6.10;99.90;;;;;;4923994;29;20031;-85
2023/10/18 01:51:17;;;;;;;31.48;19.42;;;6.10;99.90;;;;;;4922390;29;20029;-85
2023/10/18 01:53:43;;;;;;;34.80;19.90;;;6.10;99.90;;;;;;4913927;29;20491;-84
2023/10/18 01:56:10;;;;;;;28.05;18.65;;;6.10;99.90;;;;;;4927948;29;20040;-83
2023/10/18 01:58:36;;;;;;;33.90;18.73;;;6.10;99.90;;;;;;4923786;29;20026;-85
2023/10/18 02:01:08;;;;;;;30.70;19.08;;;6.10;99.90;;;;;;4939218;29;20411;-85
2023/10/18 02:03:39;;;;;;;29.83;17.95;;;6.10;99.90;;;;;;4920947;29;20027;-82
2023/10/18 02:06:06;;;;;;;28.77;18.08;;;5.90;99.90;;;;;;4931435;29;20494;-79
2023/10/18 02:08:35;;;;;;;29.05;18.75;;;5.90;99.90;;;;;;4938496;29;20032;-82
2023/10/18 02:11:06;;;;;;;35.65;20.27;;;5.80;99.90;;;;;;4938146;29;20131;-76
2023/10/18 02:13:32;;;;;;;27.17;18.83;;;5.70;99.90;;;;;;4933800;29;20048;-84
2023/10/18 02:16:06;;;;;;;31.17;20.33;;;5.80;99.90;;;;;;4922843;29;20043;-82
2023/10/18 02:18:35;;;;;;;34.90;20.15;;;5.70;99.90;;;;;;4935727;29;20039;-83
2023/10/18 02:21:05;;;;;;;37.33;21.73;;;5.70;99.90;;;;;;4918303;29;20487;-76
2023/10/18 02:23:34;;;;;;;32.67;21.42;;;5.70;99.90;;;;;;4935932;29;20019;-80
2023/10/18 02:26:53;;;;;;;32.00;20.80;;;5.50;99.90;;;;;;4934687;29;20032;-84
2023/10/18 02:28:52;;;;;;;29.20;20.45;;;5.50;99.90;;;;;;4921238;29;20460;-84
2023/10/18 02:31:21;;;;;;;28.33;18.77;;;5.50;99.90;;;;;;4935007;29;20110;-84
2023/10/18 02:33:54;;;;;;;31.00;19.58;;;5.50;99.90;;;;;;4934223;29;20086;-82
2023/10/18 02:36:23;;;;;;;31.23;20.88;;;5.40;99.90;;;;;;4933878;29;20031;-82
2023/10/18 02:38:55;;;;;;;30.75;20.38;;;5.40;99.90;;;;;;4917670;29;20487;-84
2023/10/18 02:41:21;;;;;;;34.40;21.10;;;5.40;99.90;;;;;;4918492;29;20042;-84
2023/10/18 02:43:54;;;;;;;30.60;20.88;;;5.40;99.90;;;;;;4934627;29;20027;-82
2023/10/18 02:46:24;;;;;;;31.75;21.33;;;5.50;99.90;;;;;;4934770;29;20324;-84
2023/10/18 02:48:52;;;;;;;30.27;20.38;;;5.50;99.90;;;;;;4917940;29;20115;-80
2023/10/18 02:51:24;;;;;;;35.28;21.98;;;5.50;99.90;;;;;;4917456;29;20047;-78
2023/10/18 02:54:03;;;;;;;38.10;21.23;;;5.50;99.90;;;;;;4934930;29;20024;-83
2023/10/18 02:56:37;;;;;;;33.63;22.88;;;5.40;99.90;;;;;;4934560;29;20071;-83
2023/10/18 02:59:06;;;;;;;39.00;24.58;;;5.30;99.90;;;;;;4934640;29;20024;-85
2023/10/18 03:01:40;;;;;;;38.35;24.83;;;5.30;99.90;;;;;;4917540;29;20031;-78
2023/10/18 03:04:14;;;;;;;35.13;21.63;;;5.30;99.90;;;;;;4917592;29;20038;-84
2023/10/18 03:06:45;;;;;;;39.78;23.92;;;5.30;99.90;;;;;;4934378;29;20043;-83
2023/10/18 03:09:27;;;;;;;36.35;22.88;;;5.30;99.90;;;;;;4934964;29;20031;-77
2023/10/18 03:11:57;;;;;;;34.58;22.35;;;5.30;99.90;;;;;;4916642;29;20071;-85
2023/10/18 03:14:39;;;;;;;37.80;24.08;;;5.30;99.90;;;;;;4917365;29;20495;-84
2023/10/18 03:17:19;;;;;;;46.03;26.83;;;5.20;99.90;;;;;;4927101;29;20031;-78
2023/10/18 03:19:49;;;;;;;39.10;26.50;;;5.10;99.90;;;;;;4934525;29;20035;-85
2023/10/18 03:22:19;;;;;;;37.67;22.48;;;5.10;99.90;;;;;;4934412;29;20032;-84
2023/10/18 03:24:53;;;;;;;42.30;24.33;;;5.10;99.90;;;;;;4934551;29;20032;-80
2023/10/18 03:27:20;;;;;;;35.55;23.08;;;5.00;99.90;;;;;;4922296;29;20040;-82
2023/10/18 03:29:47;;;;;;;38.08;22.98;;;5.00;99.90;;;;;;4918211;29;20096;-84
2023/10/18 03:32:19;;;;;;;35.03;21.77;;;4.90;99.90;;;;;;4937284;29;20032;-78
2023/10/18 03:34:46;;;;;;;35.67;23.23;;;5.00;99.90;;;;;;4921424;29;20040;-82
2023/10/18 03:37:20;;;;;;;39.50;23.25;;;5.00;99.90;;;;;;4935877;29;20028;-80
2023/10/18 03:39:53;;;;;;;36.30;24.13;;;4.90;99.90;;;;;;4916977;29;20023;-79
2023/10/18 03:42:54;;;;;;;40.10;26.23;;;4.80;99.90;;;;;;4917068;29;20039;-84
2023/10/18 03:45:20;;;;;;;41.95;26.42;;;4.80;99.90;;;;;;4919108;29;20032;-78
2023/10/18 03:47:57;;;;;;;40.70;26.02;;;4.80;99.90;;;;;;4920660;29;20042;-84
2023/10/18 03:51:00;;;;;;;41.78;26.92;;;4.80;99.90;;;;;;4933130;29;20028;-84
2023/10/18 03:53:18;;;;;;;42.93;26.77;;;4.80;99.90;;;;;;4913063;29;20376;-78
2023/10/18 03:55:45;;;;;;;51.78;30.67;;;4.90;99.90;;;;;;4913133;29;20704;-78
2023/10/18 03:58:22;;;;;;;50.75;27.00;;;4.90;99.90;;;;;;4920917;29;20098;-77
2023/10/18 04:00:48;;;;;;;40.10;24.05;;;4.90;99.90;;;;;;4932583;29;20380;-84
2023/10/18 04:03:20;;;;;;;51.75;29.73;;;4.80;99.90;;;;;;4941196;29;20031;-85
2023/10/18 04:05:46;;;;;;;58.50;32.77;;;4.80;99.90;;;;;;4901318;29;20148;-85
2023/10/18 04:08:14;;;;;;;58.47;32.63;;;4.80;99.90;;;;;;4929146;29;20148;-84
2023/10/18 04:10:44;;;;;;;53.30;30.02;;;4.80;99.90;;;;;;4936313;29;20027;-85
2023/10/18 04:13:14;;;;;;;50.22;27.80;;;4.70;99.90;;;;;;4939917;29;20035;-81
2023/10/18 04:15:46;;;;;;;44.65;29.05;;;4.70;99.90;;;;;;4920041;29;20028;-84
2023/10/18 04:18:13;;;;;;;44.28;27.67;;;4.70;99.90;;;;;;4946161;29;20372;-83
2023/10/18 04:20:46;;;;;;;58.35;35.63;;;4.80;99.90;;;;;;4937955;29;20027;-79
2023/10/18 04:23:14;;;;;;;65.78;37.35;;;4.80;99.90;;;;;;4937800;29;20032;-80
2023/10/18 04:25:47;;;;;;;126.85;63.10;;;4.80;99.90;;;;;;4937392;29;20072;-84
2023/10/18 04:28:13;;;;;;;235.55;114.15;;;4.80;99.90;;;;;;4937394;29;20193;-77
2023/10/18 04:30:39;;;;;;;248.88;106.95;;;4.80;99.90;;;;;;4936840;29;20126;-84
2023/10/18 04:33:19;;;;;;;251.70;118.10;;;4.80;99.90;;;;;;4937053;29;20043;-77
2023/10/18 04:35:52;;;;;;;298.08;142.15;;;4.80;99.90;;;;;;4937231;29;20039;-84
2023/10/18 04:38:30;;;;;;;290.10;129.68;;;4.90;99.90;;;;;;4936848;29;20034;-77
2023/10/18 04:43:27;;;;;;;123.40;66.10;;;4.90;99.90;;;;;;4936900;29;20383;-83
2023/10/18 04:45:57;;;;;;;103.68;59.22;;;4.90;99.90;;;;;;4919566;29;20044;-83
2023/10/18 04:49:00;;;;;;;97.63;53.80;;;4.90;99.90;;;;;;4936805;29;20027;-84
2023/10/18 04:51:18;;;;;;;60.92;37.25;;;4.90;99.90;;;;;;4919552;29;20027;-84
2023/10/18 04:53:45;;;;;;;48.70;33.30;;;5.00;99.90;;;;;;4919437;29;20488;-84
2023/10/18 04:56:11;;;;;;;44.40;28.42;;;5.00;99.90;;;;;;4919350;29;20026;-77
2023/10/18 04:58:40;;;;;;;43.85;29.70;;;4.90;99.90;;;;;;4936645;29;20032;-83
2023/10/18 05:01:08;;;;;;;45.03;29.13;;;4.90;99.90;;;;;;4936473;29;20076;-82
2023/10/18 05:03:33;;;;;;;47.80;35.00;;;4.90;99.90;;;;;;4936823;29;20456;-80
2023/10/18 05:06:00;;;;;;;74.80;50.50;;;5.00;99.90;;;;;;4936509;29;20036;-81
2023/10/18 05:08:30;;;;;;;82.15;50.92;;;4.90;99.90;;;;;;4936031;29;20396;-84
2023/10/18 05:11:22;;;;;;;57.47;37.25;;;5.00;99.90;;;;;;4936269;29;20016;-83
2023/10/18 05:13:42;;;;;;;50.40;33.78;;;5.00;99.90;;;;;;4935737;29;20044;-82
2023/10/18 05:16:11;;;;;;;50.88;32.53;;;5.10;99.90;;;;;;4936481;29;20808;-83
2023/10/18 05:18:37;;;;;;;42.72;29.30;;;5.30;99.90;;;;;;4919197;29;20384;-79
2023/10/18 05:21:10;;;;;;;44.17;30.38;;;5.60;99.90;;;;;;4935733;29;20028;-82
2023/10/18 05:23:36;;;;;;;46.10;30.23;;;5.90;99.90;;;;;;4935822;29;20032;-81
2023/10/18 05:26:08;;;;;;;45.10;31.10;;;6.10;99.90;;;;;;4933074;29;20036;-83
2023/10/18 05:28:52;;;;;;;49.75;33.55;;;6.30;99.90;;;;;;4938898;29;20039;-84
2023/10/18 05:34:48;;;;;;;57.83;36.15;;;6.90;99.90;;;;;;4935998;29;20110;-80
2023/10/18 05:41:59;;;;;;;48.67;33.72;;;7.40;99.90;;;;;;4932980;29;20082;-76
2023/10/18 05:44:29;;;;;;;45.95;32.00;;;7.60;99.90;;;;;;4923122;29;20039;-83
2023/10/18 05:46:56;;;;;;;52.53;31.17;;;7.40;99.90;;;;;;4931352;29;20039;-77
2023/10/18 05:49:25;;;;;;;46.53;32.83;;;7.10;99.90;;;;;;4949421;29;20530;-83
2023/10/18 05:51:51;;;;;;;51.42;34.33;;;6.90;99.90;;;;;;4919623;29;20056;-78
2023/10/18 05:54:21;;;;;;;46.05;32.92;;;6.80;99.90;;;;;;4929276;29;20384;-79
2023/10/18 05:56:52;;;;;;;48.78;35.85;;;6.80;99.90;;;;;;4935745;29;20032;-79
2023/10/18 06:01:58;;;;;;;58.78;38.70;;;6.80;99.90;;;;;;4936529;29;20050;-81
2023/10/18 06:04:25;;;;;;;56.13;37.33;;;6.80;99.90;;;;;;4917048;29;20559;-78
2023/10/18 06:07:13;;;;;;;50.50;35.72;;;6.80;99.90;;;;;;4916408;29;20095;-82
2023/10/18 06:12:22;;;;;;;54.83;36.58;;;7.00;99.90;;;;;;4947970;29;20142;-81
2023/10/18 06:14:51;;;;;;;53.65;39.55;;;7.00;99.90;;;;;;4955142;29;20689;-78
2023/10/18 06:17:46;;;;;;;59.10;41.47;;;7.20;99.90;;;;;;4955449;29;20446;-79
2023/10/18 06:20:27;;;;;;;63.45;43.10;;;7.30;99.90;;;;;;4955019;29;20073;-79
2023/10/18 06:23:09;;;;;;;72.65;46.85;;;7.50;99.90;;;;;;4951430;29;20027;-78
2023/10/18 06:25:36;;;;;;;65.05;44.95;;;7.60;99.90;;;;;;4931128;29;20043;-81
2023/10/18 06:28:07;;;;;;;67.20;48.03;;;7.70;99.90;;;;;;4935389;29;20032;-77
2023/10/18 06:30:39;;;;;;;60.30;43.20;;;7.80;99.90;;;;;;4935784;29;20024;-79
2023/10/18 06:33:09;;;;;;;58.20;41.40;;;8.00;99.90;;;;;;4932170;29;20464;-78
2023/10/18 06:35:42;;;;;;;57.55;41.42;;;8.20;99.90;;;;;;4928805;29;20035;-80
2023/10/18 06:38:10;;;;;;;59.80;42.22;;;8.30;99.90;;;;;;4933663;29;20091;-80
2023/10/18 06:43:20;;;;;;;55.13;38.30;;;8.40;99.90;;;;;;4934452;29;20054;-81
2023/10/18 06:45:50;;;;;;;55.70;40.53;;;8.50;99.90;;;;;;4935245;29;20531;-78
2023/10/18 06:48:17;;;;;;;58.22;37.53;;;8.50;99.90;;;;;;4935421;29;20383;-76
2023/10/18 06:50:46;;;;;;;52.47;35.70;;;8.70;99.90;;;;;;4935462;29;20023;-77
2023/10/18 06:53:15;;;;;;;47.03;33.92;;;8.80;99.90;;;;;;4932127;29;20040;-78
2023/10/18 06:55:45;;;;;;;50.35;32.83;;;9.00;99.90;;;;;;4924839;29;20034;-83
2023/10/18 07:00:51;;;;;;;49.50;33.35;;;9.10;99.90;;;;;;4935094;29;20058;-78
2023/10/18 07:03:24;;;;;;;46.40;31.92;;;9.30;99.90;;;;;;4935906;29;20036;-79
2023/10/18 07:05:52;;;;;;;49.47;33.17;;;9.40;99.90;;;;;;4935254;29;20043;-80
2023/10/18 07:08:21;;;;;;;45.38;30.90;;;9.40;99.90;;;;;;4917672;29;20364;-79
2023/10/18 07:10:57;;;;;;;51.63;31.48;;;9.50;99.90;;;;;;4935008;29;20050;-79
2023/10/18 07:13:33;;;;;;;48.50;32.25;;;9.70;99.90;;;;;;4935031;29;20503;-81
2023/10/18 07:16:05;;;;;;;44.85;29.73;;;9.90;99.90;;;;;;4935487;29;20045;-81
2023/10/18 07:18:36;;;;;;;46.97;29.60;;;9.90;99.90;;;;;;4948839;28;20439;-77
2023/10/18 07:21:09;;;;;;;44.88;30.52;;;10.10;99.90;;;;;;4938080;29;20031;-79
2023/10/18 07:23:37;;;;;;;49.92;30.73;;;10.00;99.90;;;;;;4933728;29;20439;-77
2023/10/18 07:26:04;;;;;;;41.10;29.08;;;10.20;99.90;;;;;;4924989;29;20042;-78
2023/10/18 07:28:35;;;;;;;47.55;29.08;;;10.30;99.90;;;;;;4924478;29;20079;-77
2023/10/18 07:31:10;;;;;;;52.83;32.75;;;10.30;99.90;;;;;;4919285;29;20060;-78
2023/10/18 07:33:43;;;;;;;44.90;30.02;;;10.40;99.90;;;;;;4931451;29;20094;-77
2023/10/18 07:36:12;;;;;;;43.15;29.23;;;10.60;99.90;;;;;;4934012;29;20035;-80
2023/10/18 07:38:47;;;;;;;42.28;29.67;;;10.70;99.90;;;;;;4922264;29;20024;-80
2023/10/18 07:41:18;;;;;;;47.10;30.63;;;10.40;99.90;;;;;;4924393;29;20356;-79
2023/10/18 07:43:44;;;;;;;47.30;32.35;;;10.70;99.90;;;;;;4914191;29;20027;-79
2023/10/18 07:46:19;;;;;;;44.17;30.45;;;10.80;99.90;;;;;;4917929;29;20044;-79
2023/10/18 07:48:48;;;;;;;49.65;27.83;;;10.80;99.90;;;;;;4936620;29;20467;-79
2023/10/18 07:51:24;;;;;;;44.92;30.42;;;10.70;99.90;;;;;;4938929;29;20110;-80
2023/10/18 07:53:51;;;;;;;47.60;31.38;;;10.90;99.90;;;;;;4937792;29;20031;-78
2023/10/18 07:56:17;;;;;;;49.45;34.10;;;11.00;99.90;;;;;;4937502;29;20075;-79
2023/10/18 07:58:49;;;;;;;46.38;32.00;;;11.00;99.90;;;;;;4919991;29;20039;-78
2023/10/18 08:01:32;;;;;;;46.28;29.70;;;11.20;99.90;;;;;;4920559;29;20181;-79
2023/10/18 08:04:01;;;;;;;43.80;30.13;;;11.30;99.90;;;;;;4935892;29;20079;-78
2023/10/18 08:06:31;;;;;;;50.05;31.90;;;11.10;99.90;;;;;;4937230;29;20035;-78
2023/10/18 08:08:57;;;;;;;45.33;31.88;;;11.30;99.90;;;;;;4934841;29;20081;-79
2023/10/18 08:11:23;;;;;;;45.78;29.85;;;11.40;99.90;;;;;;4937535;29;20036;-80
2023/10/18 08:13:49;;;;;;;44.47;29.77;;;11.40;99.90;;;;;;4937373;29;20513;-79
2023/10/18 08:16:26;;;;;;;40.40;28.20;;;11.50;99.90;;;;;;4937296;29;20081;-77
2023/10/18 08:18:52;;;;;;;40.50;26.65;;;11.60;99.90;;;;;;4938170;29;20027;-78
2023/10/18 08:21:28;;;;;;;43.10;25.50;;;11.80;99.90;;;;;;4943079;29;20083;-78
2023/10/18 08:23:56;;;;;;;43.15;27.27;;;11.80;99.90;;;;;;4919271;29;20131;-80
2023/10/18 08:26:26;;;;;;;39.20;25.60;;;12.00;99.90;;;;;;4919709;29;20070;-77
2023/10/18 08:28:53;;;;;;;35.85;23.85;;;12.10;99.90;;;;;;4935919;29;20043;-78
2023/10/18 08:31:32;;;;;;;34.75;21.95;;;12.30;99.90;;;;;;4933210;29;20114;-80
2023/10/18 08:34:05;;;;;;;35.20;23.58;;;12.50;99.90;;;;;;4937365;29;20059;-76
2023/10/18 08:36:35;;;;;;;32.53;22.10;;;12.40;99.90;;;;;;4936294;29;20127;-78
2023/10/18 08:39:02;;;;;;;32.38;22.73;;;12.60;99.90;;;;;;4943681;29;20078;-79
2023/10/18 08:41:33;;;;;;;33.80;23.38;;;12.40;99.90;;;;;;4937234;29;20075;-79
2023/10/18 08:44:16;;;;;;;36.47;23.85;;;12.20;99.90;;;;;;4920864;29;20035;-78
2023/10/18 08:46:46;;;;;;;36.78;25.30;;;12.20;99.90;;;;;;4937809;29;20050;-79
2023/10/18 08:49:14;;;;;;;36.95;23.75;;;12.50;99.90;;;;;;4937601;29;20024;-78
2023/10/18 08:51:45;;;;;;;39.58;25.33;;;12.70;99.90;;;;;;4937825;29;20034;-78
2023/10/18 08:54:22;;;;;;;41.28;27.55;;;12.90;99.90;;;;;;4937252;29;20111;-79
2023/10/18 08:56:49;;;;;;;37.13;24.88;;;12.60;99.90;;;;;;4937647;29;20042;-80
2023/10/18 08:59:18;;;;;;;40.45;24.40;;;12.70;99.90;;;;;;4937574;29;20024;-79
2023/10/18 09:04:31;;;;;;;26.08;18.40;;;12.60;99.90;;;;;;4937467;29;20031;-80
2023/10/18 09:07:00;;;;;;;31.48;20.45;;;12.80;99.90;;;;;;4936589;29;20039;-79
2023/10/18 09:09:35;;;;;;;31.00;20.95;;;13.10;99.90;;;;;;4936193;29;20476;-79
2023/10/18 09:12:14;;;;;;;40.97;22.95;;;13.40;99.90;;;;;;4936981;29;20077;-77
2023/10/18 09:14:50;;;;;;;32.80;21.73;;;13.40;99.90;;;;;;4937247;29;20063;-82
2023/10/18 09:17:22;;;;;;;28.85;20.05;;;13.70;99.90;;;;;;4937197;29;20028;-81
2023/10/18 09:19:53;;;;;;;33.58;21.95;;;13.70;99.90;;;;;;4937282;29;20027;-81
2023/10/18 09:22:22;;;;;;;31.05;21.67;;;13.70;99.90;;;;;;4937012;29;20035;-81
2023/10/18 09:24:48;;;;;;;33.40;23.33;;;13.80;99.90;;;;;;4937044;29;20027;-78
2023/10/18 09:27:14;;;;;;;31.88;21.73;;;13.70;99.90;;;;;;4936924;29;20123;-79
2023/10/18 09:29:39;;;;;;;29.45;20.88;;;13.80;99.90;;;;;;4936593;29;20551;-78
2023/10/18 09:32:12;;;;;;;30.90;20.67;;;13.80;99.90;;;;;;4936935;29;20036;-77
2023/10/18 09:34:38;;;;;;;32.08;21.10;;;13.80;99.90;;;;;;4936963;29;20399;-77
2023/10/18 09:37:11;;;;;;;30.80;20.50;;;13.90;99.90;;;;;;4935377;29;20020;-80
2023/10/18 09:39:37;;;;;;;30.60;20.50;;;14.10;99.90;;;;;;4936601;29;20031;-80
2023/10/18 09:42:12;;;;;;;32.05;22.20;;;14.30;99.90;;;;;;4936068;29;20043;-79
2023/10/18 09:44:41;;;;;;;24.17;16.40;;;14.40;99.90;;;;;;4936174;29;20020;-79
2023/10/18 09:47:08;;;;;;;27.20;17.70;;;14.40;99.90;;;;;;4934050;29;20031;-80
2023/10/18 09:49:34;;;;;;;23.77;15.98;;;14.40;99.30;;;;;;4936560;29;20376;-79
2023/10/18 09:52:03;;;;;;;22.70;16.98;;;14.50;99.10;;;;;;4936811;29;20032;-81
2023/10/18 09:54:36;;;;;;;24.60;17.42;;;14.30;98.40;;;;;;4935167;29;20118;-80
2023/10/18 09:57:06;;;;;;;30.08;16.08;;;14.30;98.50;;;;;;4936085;29;20027;-80
2023/10/18 09:59:37;;;;;;;24.08;16.10;;;14.30;97.50;;;;;;4934872;29;20114;-78
2023/10/18 10:02:07;;;;;;;23.42;14.75;;;14.40;98.70;;;;;;4945768;29;20122;-80
2023/10/18 10:04:35;;;;;;;23.58;14.73;;;14.40;97.70;;;;;;4941330;29;20034;-82
2023/10/18 10:09:49;;;;;;;22.20;15.77;;;14.40;97.20;;;;;;4922777;29;20077;-78
2023/10/18 10:12:17;;;;;;;23.98;15.00;;;14.60;98.40;;;;;;4932902;29;20199;-79
2023/10/18 10:14:43;;;;;;;22.33;15.30;;;14.50;96.60;;;;;;4934899;29;20027;-79
2023/10/18 10:17:17;;;;;;;21.15;13.48;;;14.10;96.70;;;;;;4934654;29;20031;-80
2023/10/18 10:19:54;;;;;;;21.08;12.93;;;14.40;97.60;;;;;;4935085;29;20082;-79
2023/10/18 10:22:24;;;;;;;23.27;15.77;;;14.30;96.80;;;;;;4917954;29;20378;-81
2023/10/18 10:25:11;;;;;;;23.20;14.18;;;14.60;98.10;;;;;;4934678;29;20069;-79
2023/10/18 10:33:12;;;;;;;22.92;14.55;;;14.80;96.10;;;;;;4944070;29;20075;-79
2023/10/18 10:35:46;;;;;;;27.38;17.25;;;14.90;97.30;;;;;;4943523;29;20028;-78
2023/10/18 10:38:19;;;;;;;25.27;14.73;;;14.80;96.20;;;;;;4934435;29;20020;-78
2023/10/18 10:40:48;;;;;;;22.77;13.85;;;15.00;97.20;;;;;;4931586;29;20037;-79
2023/10/18 10:43:18;;;;;;;19.27;13.48;;;15.10;95.80;;;;;;4933924;29;20413;-78
2023/10/18 10:48:17;;;;;;;21.30;11.80;;;15.10;95.10;;;;;;4934230;29;20110;-79
2023/10/18 10:50:50;;;;;;;17.95;11.77;;;15.20;96.00;;;;;;4933677;29;20016;-78
2023/10/18 10:53:44;;;;;;;19.83;12.10;;;15.20;94.60;;;;;;4933917;29;20039;-77
2023/10/18 10:56:30;;;;;;;22.25;14.48;;;15.10;94.20;;;;;;4933339;29;20043;-79
2023/10/18 11:01:40;;;;;;;15.88;9.55;;;15.20;94.30;;;;;;4932917;29;20028;-80
2023/10/18 11:04:14;;;;;;;20.20;11.70;;;15.20;93.70;;;;;;4942273;29;20096;-80
2023/10/18 11:06:44;;;;;;;20.30;11.50;;;15.40;94.60;;;;;;4934042;29;20044;-78
2023/10/18 11:09:17;;;;;;;20.80;11.60;;;15.40;94.30;;;;;;4934476;29;20019;-78
2023/10/18 11:11:47;;;;;;;18.40;11.18;;;15.50;99.90;;;;;;4934199;29;20109;-79
2023/10/18 11:14:18;;;;;;;18.13;10.80;;;15.60;94.10;;;;;;4934578;29;20040;-80
2023/10/18 11:16:53;;;;;;;23.70;11.48;;;15.50;93.80;;;;;;4933926;29;20503;-78
2023/10/18 11:19:28;;;;;;;20.25;10.98;;;15.60;94.20;;;;;;4917765;29;20051;-78
2023/10/18 11:22:00;;;;;;;16.98;10.50;;;15.60;94.00;;;;;;4905811;29;20035;-78
2023/10/18 11:24:27;;;;;;;17.23;10.07;;;15.50;94.40;;;;;;4934258;29;20060;-81
2023/10/18 11:26:53;;;;;;;19.90;10.98;;;15.60;94.50;;;;;;4934520;29;20087;-77
2023/10/18 11:29:25;;;;;;;22.25;10.70;;;15.60;94.80;;;;;;4934243;29;20424;-81
2023/10/18 11:31:58;;;;;;;20.63;10.98;;;15.60;94.70;;;;;;4934546;29;20074;-79
2023/10/18 11:34:27;;;;;;;20.05;10.95;;;15.60;94.90;;;;;;4934070;29;20119;-82
2023/10/18 11:37:01;;;;;;;19.20;10.18;;;15.60;94.70;;;;;;4927324;29;20028;-80
2023/10/18 11:39:36;;;;;;;18.27;10.60;;;15.70;94.30;;;;;;4932551;29;20503;-80
2023/10/18 11:42:02;;;;;;;19.05;10.75;;;15.60;93.50;;;;;;4934210;29;20046;-79
2023/10/18 11:44:35;;;;;;;17.20;9.68;;;15.70;94.90;;;;;;4934172;29;20019;-80
2023/10/18 11:47:19;;;;;;;15.05;8.95;;;15.30;92.70;;;;;;4933971;29;20040;-78
2023/10/18 11:49:47;;;;;;;19.75;10.60;;;15.50;93.90;;;;;;4938265;29;20471;-81
2023/10/18 11:52:17;;;;;;;17.15;10.07;;;15.70;94.60;;;;;;4937328;29;20353;-78
2023/10/18 11:54:45;;;;;;;17.92;9.05;;;15.60;93.50;;;;;;4930796;29;20367;-81
2023/10/18 11:57:41;;;;;;;15.10;9.48;;;15.70;93.80;;;;;;4936449;29;20036;-79
2023/10/18 12:00:27;;;;;;;16.67;10.45;;;15.70;93.90;;;;;;4927449;29;20063;-78
2023/10/18 12:02:54;;;;;;;19.65;10.85;;;15.70;93.60;;;;;;4930591;29;20043;-80
2023/10/18 12:05:27;;;;;;;17.67;10.57;;;15.80;94.10;;;;;;4938897;28;20028;-81
2023/10/18 12:07:56;;;;;;;18.52;10.38;;;15.90;93.80;;;;;;4932790;29;20062;-79
2023/10/18 12:10:34;;;;;;;18.67;9.30;;;15.90;92.90;;;;;;4920214;29;20481;-79
2023/10/18 12:13:11;;;;;;;14.07;8.57;;;15.80;93.00;;;;;;4936797;29;20055;-80
2023/10/18 12:15:38;;;;;;;20.17;9.65;;;15.80;92.60;;;;;;4923836;29;20036;-80
2023/10/18 12:18:09;;;;;;;14.23;10.13;;;15.80;92.80;;;;;;4929962;29;20369;-79
2023/10/18 12:20:36;;;;;;;16.50;8.57;;;15.80;93.20;;;;;;4939456;29;20028;-80
2023/10/18 12:23:03;;;;;;;13.68;8.65;;;15.90;92.80;;;;;;4935453;29;20464;-78
2023/10/18 12:25:29;;;;;;;14.52;9.15;;;16.10;93.90;;;;;;4915916;29;20484;-82
2023/10/18 12:27:55;;;;;;;14.30;8.98;;;16.20;93.80;;;;;;4930090;29;20043;-80
2023/10/18 12:30:27;;;;;;;12.13;7.80;;;16.30;93.90;;;;;;4929021;29;20496;-80
2023/10/18 12:32:54;;;;;;;15.73;8.68;;;16.20;92.70;;;;;;4945027;29;20110;-81
2023/10/18 12:35:20;;;;;;;16.15;9.13;;;16.30;93.70;;;;;;4934161;29;20019;-81
2023/10/18 12:37:49;;;;;;;13.10;8.20;;;16.20;92.60;;;;;;4924391;29;20020;-81
2023/10/18 12:40:28;;;;;;;13.93;7.93;;;16.20;92.80;;;;;;4927604;29;20048;-81
2023/10/18 12:43:01;;;;;;;13.65;7.55;;;16.30;93.90;;;;;;4921458;29;20111;-78
2023/10/18 12:45:29;;;;;;;20.60;7.90;;;16.20;92.60;;;;;;4917761;29;20032;-80
2023/10/18 12:47:55;;;;;;;15.40;8.27;;;16.20;92.70;;;;;;4917192;29;20106;-82
2023/10/18 12:50:27;;;;;;;15.88;8.73;;;16.20;93.00;;;;;;4922261;29;20023;-81
2023/10/18 12:53:16;;;;;;;14.65;8.77;;;16.20;92.80;;;;;;4922839;29;20039;-78
2023/10/18 12:55:43;;;;;;;14.68;8.63;;;16.20;92.60;;;;;;4920649;29;20032;-78
2023/10/18 12:58:10;;;;;;;15.85;9.43;;;16.00;92.30;;;;;;4920571;29;20028;-79
2023/10/18 13:00:45;;;;;;;20.00;9.65;;;16.10;93.00;;;;;;4915919;29;20024;-78
2023/10/18 13:05:44;;;;;;;15.85;9.43;;;16.20;93.40;;;;;;4924229;29;20396;-80
2023/10/18 13:08:22;;;;;;;17.98;9.50;;;16.20;92.90;;;;;;4908286;29;20023;-82
2023/10/18 13:11:44;;;;;;;15.23;8.30;;;16.30;92.90;;;;;;4936564;29;20031;-80
2023/10/18 13:13:46;;;;;;;15.68;9.90;;;16.30;93.70;;;;;;4955480;29;20065;-80
2023/10/18 13:16:15;;;;;;;16.83;10.15;;;16.30;92.90;;;;;;4954929;28;20035;-81
2023/10/18 13:18:44;;;;;;;25.05;10.98;;;16.20;93.10;;;;;;4938390;29;20031;-81
2023/10/18 13:21:11;;;;;;;14.85;8.98;;;16.20;93.20;;;;;;4956403;29;20027;-81
2023/10/18 13:23:44;;;;;;;12.98;8.55;;;16.20;93.10;;;;;;4899134;29;20123;-81
2023/10/18 13:26:11;;;;;;;14.57;9.00;;;16.20;93.20;;;;;;4918171;29;20063;-82
2023/10/18 13:28:51;;;;;;;18.17;10.18;;;16.20;93.00;;;;;;4918219;29;20028;-82
2023/10/18 13:31:22;;;;;;;13.57;9.00;;;16.20;93.30;;;;;;4925579;29;20028;-78
2023/10/18 13:33:52;;;;;;;16.58;9.27;;;16.20;93.10;;;;;;4946399;29;20046;-77
2023/10/18 13:36:21;;;;;;;14.18;8.73;;;16.30;93.70;;;;;;4937385;29;20468;-77
2023/10/18 13:38:49;;;;;;;15.38;9.15;;;16.40;93.10;;;;;;4936274;29;20027;-77